This is the latest recevied weather packets stored in our database for station/object W3JBS-2. If no packets are shown the sender has not sent any weather packets the latest 10 day(s).
| Time | Temp. | Humidity | Pressure | Rain* | Wind** | Luminosity | Snow |
|---|---|---|---|---|---|---|---|
| 1787616384 | 18.33° C | 77% | 1032 hPa | 0 mm | - | 1754 W/m² | - |
| 1787613684 | 21.67° C | 63% | 1012.2 hPa | 0 mm | - | 1746 W/m² | - |
| 1787612784 | 22.78° C | 59% | 1007.4 hPa | 0 mm | - | 1742 W/m² | - |
| 1787611883 | 23.89° C | 53% | 999 hPa | 0 mm | - | 1738 W/m² | - |
| 1787610984 | 24.44° C | 53% | 1022.8 hPa | 0 mm | - | 1737 W/m² | - |
| 1787610084 | 24.44° C | 52% | 1018.6 hPa | 0 mm | - | 1733 W/m² | - |
| 1787609183 | 24.44° C | 55% | 1018.6 hPa | 0 mm | - | 1730 W/m² | - |
| 1787608284 | 25° C | 53% | 1018.6 hPa | 0 mm | - | 1726 W/m² | - |
| 1787607384 | 25° C | 54% | 1018.5 hPa | 0 mm | - | 1723 W/m² | - |
| 1787606483 | 25.56° C | 52% | 1010.8 hPa | 0 mm | - | 1719 W/m² | - |
| 1787605584 | 24.44° C | 58% | 1010.8 hPa | 0 mm | - | 1716 W/m² | - |
| 1787604684 | 25.56° C | 54% | 1022.9 hPa | 0 mm | - | 1712 W/m² | - |
| 1787603783 | 25.56° C | 57% | 1018.1 hPa | 0 mm | - | 1707 W/m² | - |
| 1787603588 | 26.11° C | - | - | 0 mm | - | - | - |
| 1787601983 | 26.11° C | 54% | 1019.7 hPa | 0 mm | - | 1695 W/m² | - |
| 1787601084 | 26.11° C | 56% | 1023.8 hPa | 0 mm | - | 1680 W/m² | - |
| 1787600184 | 26.11° C | 55% | 1023.8 hPa | 0 mm | - | 1658 W/m² | - |
| 1787599283 | 26.11° C | 54% | 1023.8 hPa | 0 mm | - | 1635 W/m² | - |
| 1787597484 | 26.11° C | 54% | 1025.3 hPa | 0 mm | - | 1593 W/m² | - |
| 1787596583 | 26.11° C | 57% | 1025.3 hPa | 0 mm | - | 1536 W/m² | - |
| 1787595684 | 26.11° C | 56% | 1027.7 hPa | 0 mm | - | 1517 W/m² | - |
| 1787594783 | 26.11° C | 56% | 1027.7 hPa | 0 mm | - | 1517 W/m² | - |
| 1787593884 | 25.56° C | 55% | 1033.6 hPa | 0 mm | - | 1522 W/m² | - |
| 1787592984 | 24.44° C | 62% | 1024.3 hPa | 0 mm | - | 1485 W/m² | - |
| 1787591184 | 23.89° C | 62% | 1032.1 hPa | 0 mm | - | 1410 W/m² | - |
* Rain latest hour (hover to see other rain measurements)
** Current wind speed in m/s (hover to see current wind gust speed)